Time;durP1;ratioP1;P1;durP2;ratioP2;P2;SDS_P1;SDS_P2;PMS_P1;PMS_P2;Temp;Humidity;BMP_temperature;BMP_pressure;BME280_temperature;BME280_humidity;BME280_pressure;Samples;Min_cycle;Max_cycle;Signal;HPM_P1;HPM_P2
2021/03/25 00:01:17;;;;;;;41.22;30.42;;;4.70;90.60;;;;;;5004999;28;20053;-48
2021/03/25 00:03:46;;;;;;;43.53;30.08;;;4.60;90.60;;;;;;5005327;28;20411;-50
2021/03/25 00:06:18;;;;;;;38.90;29.17;;;4.60;90.80;;;;;;5004974;28;20042;-52
2021/03/25 00:08:50;;;;;;;41.03;29.15;;;4.50;90.60;;;;;;5005441;28;20049;-52
2021/03/25 00:11:17;;;;;;;38.33;29.60;;;4.50;90.80;;;;;;5005821;28;20074;-48
2021/03/25 00:13:46;;;;;;;41.53;29.15;;;4.50;90.60;;;;;;5002502;28;20060;-49
2021/03/25 00:16:18;;;;;;;49.13;31.65;;;4.40;90.40;;;;;;5004240;28;20424;-52
2021/03/25 00:18:44;;;;;;;47.65;32.72;;;4.50;90.90;;;;;;5003816;28;20143;-50
2021/03/25 00:21:14;;;;;;;46.33;32.83;;;4.50;90.70;;;;;;5005642;28;20144;-50
2021/03/25 00:23:40;;;;;;;41.20;31.30;;;4.50;90.90;;;;;;5005184;28;20046;-47
2021/03/25 00:26:13;;;;;;;41.65;31.85;;;4.40;90.70;;;;;;5002652;28;20609;-49
2021/03/25 00:28:41;;;;;;;46.10;31.52;;;4.40;90.50;;;;;;5005400;28;20049;-50
2021/03/25 00:31:11;;;;;;;46.42;33.22;;;4.50;90.80;;;;;;5009273;28;20054;-51
2021/03/25 00:33:37;;;;;;;42.53;29.55;;;4.50;90.60;;;;;;5002585;28;20061;-51
2021/03/25 00:36:05;;;;;;;49.63;31.95;;;4.50;90.50;;;;;;5005399;28;20046;-52
2021/03/25 00:38:34;;;;;;;42.90;30.58;;;4.50;90.90;;;;;;5005458;28;20053;-52
2021/03/25 00:41:01;;;;;;;43.97;30.23;;;4.40;90.90;;;;;;5005502;28;20457;-51
2021/03/25 00:43:33;;;;;;;49.75;34.10;;;4.30;90.80;;;;;;5004860;28;20756;-52
2021/03/25 00:45:59;;;;;;;43.65;30.45;;;4.40;91.00;;;;;;5005639;28;20058;-50
2021/03/25 00:48:25;;;;;;;48.78;31.85;;;4.40;90.90;;;;;;5005531;28;20060;-50
2021/03/25 00:51:03;;;;;;;50.17;33.78;;;4.40;90.70;;;;;;5005811;28;20429;-54
2021/03/25 00:53:38;;;;;;;46.53;33.63;;;4.40;90.80;;;;;;4987654;28;20124;-53
2021/03/25 00:56:07;;;;;;;46.50;34.22;;;4.40;90.70;;;;;;5004570;28;20091;-53
2021/03/25 00:58:33;;;;;;;45.80;33.33;;;4.40;90.90;;;;;;5002889;28;20050;-51
2021/03/25 01:01:08;;;;;;;44.10;31.73;;;4.30;91.00;;;;;;5007600;28;20057;-52
2021/03/25 01:03:39;;;;;;;42.67;30.60;;;4.30;91.00;;;;;;5009095;28;20046;-52
2021/03/25 01:06:08;;;;;;;47.47;32.58;;;4.30;90.70;;;;;;5008217;28;20402;-53
2021/03/25 01:08:35;;;;;;;45.28;30.13;;;4.30;90.80;;;;;;5010514;28;20533;-50
2021/03/25 01:11:23;;;;;;;46.22;32.22;;;4.30;90.80;;;;;;5006345;28;20474;-52
2021/03/25 01:13:50;;;;;;;50.22;34.08;;;4.20;90.80;;;;;;5008157;28;20060;-50
2021/03/25 01:16:37;;;;;;;49.53;33.75;;;4.30;90.90;;;;;;5008484;28;20053;-50
2021/03/25 01:19:23;;;;;;;51.08;36.15;;;4.20;91.10;;;;;;5008287;28;20053;-52
2021/03/25 01:21:59;;;;;;;46.03;34.42;;;4.30;91.10;;;;;;5007459;28;20050;-51
2021/03/25 01:24:26;;;;;;;50.13;33.15;;;4.20;91.20;;;;;;5009084;28;20050;-54
2021/03/25 01:26:54;;;;;;;49.00;34.13;;;4.20;91.20;;;;;;5008389;28;20058;-50
2021/03/25 01:29:26;;;;;;;42.15;30.77;;;4.20;91.30;;;;;;5008490;28;20057;-51
2021/03/25 01:31:55;;;;;;;46.20;32.03;;;4.20;91.30;;;;;;5003434;28;20054;-51
2021/03/25 01:34:22;;;;;;;43.83;32.40;;;4.10;91.30;;;;;;5007204;28;20053;-50
2021/03/25 01:36:51;;;;;;;47.58;34.25;;;4.10;91.40;;;;;;5008704;28;20111;-52
2021/03/25 01:39:17;;;;;;;49.60;33.95;;;4.10;91.70;;;;;;5009058;28;20092;-49
2021/03/25 01:41:45;;;;;;;51.13;35.25;;;4.10;91.30;;;;;;5008421;28;20069;-51
2021/03/25 01:44:36;;;;;;;52.17;32.85;;;4.10;91.40;;;;;;5007707;28;20049;-50
2021/03/25 01:47:05;;;;;;;46.38;32.83;;;4.10;91.60;;;;;;5010664;28;20046;-51
2021/03/25 01:49:39;;;;;;;48.63;32.90;;;4.10;91.40;;;;;;5010901;28;20058;-52
2021/03/25 01:52:46;;;;;;;44.95;32.17;;;4.10;91.50;;;;;;5008052;28;20076;-50
2021/03/25 01:55:41;;;;;;;53.80;35.30;;;4.10;91.30;;;;;;5006441;28;20453;-53
2021/03/25 01:58:31;;;;;;;44.40;31.83;;;4.10;91.40;;;;;;5005885;28;20073;-52
2021/03/25 02:01:24;;;;;;;46.33;31.75;;;4.20;91.60;;;;;;5005238;28;20073;-50
2021/03/25 02:04:05;;;;;;;51.63;33.28;;;4.20;91.60;;;;;;5008117;28;20056;-51
2021/03/25 02:06:31;;;;;;;43.90;31.55;;;4.20;91.60;;;;;;5007468;28;20046;-50
2021/03/25 02:09:01;;;;;;;55.25;34.83;;;4.20;91.40;;;;;;5007323;28;20058;-49
2021/03/25 02:11:39;;;;;;;52.70;34.08;;;4.30;91.50;;;;;;5006121;28;20050;-47
2021/03/25 02:14:35;;;;;;;49.47;33.72;;;4.30;91.70;;;;;;5005385;28;20124;-51
2021/03/25 02:17:11;;;;;;;53.33;38.50;;;4.40;91.60;;;;;;4987423;28;20046;-51
2021/03/25 02:19:58;;;;;;;48.83;34.72;;;4.50;91.60;;;;;;5007184;28;20058;-52
2021/03/25 02:22:48;;;;;;;47.03;34.92;;;4.50;91.80;;;;;;4999976;28;20049;-52
2021/03/25 02:25:23;;;;;;;46.15;32.85;;;4.50;91.70;;;;;;5007111;28;20057;-53
2021/03/25 02:28:17;;;;;;;48.90;33.30;;;4.60;91.80;;;;;;5007254;28;20497;-54
2021/03/25 02:30:46;;;;;;;48.22;33.55;;;4.60;91.70;;;;;;5009986;28;20050;-53
2021/03/25 02:33:17;;;;;;;53.15;36.67;;;4.70;91.70;;;;;;5003444;28;20137;-52
2021/03/25 02:35:54;;;;;;;48.20;35.63;;;4.70;91.70;;;;;;5013227;28;21498;-51
2021/03/25 02:38:46;;;;;;;46.83;33.92;;;4.70;91.80;;;;;;5006123;28;20046;-52
2021/03/25 02:41:26;;;;;;;53.30;37.10;;;4.70;91.80;;;;;;5008773;28;20046;-52
2021/03/25 02:44:18;;;;;;;51.85;35.55;;;4.80;92.10;;;;;;5007252;28;20049;-49
2021/03/25 02:46:53;;;;;;;52.95;37.42;;;4.90;92.30;;;;;;5008410;28;20123;-53
2021/03/25 02:49:24;;;;;;;54.92;37.95;;;4.90;92.30;;;;;;5006551;28;20054;-51
2021/03/25 02:52:02;;;;;;;51.30;36.03;;;5.00;91.90;;;;;;5007105;28;20053;-52
2021/03/25 02:54:31;;;;;;;54.80;35.75;;;5.00;91.90;;;;;;5006625;28;20042;-51
2021/03/25 02:57:07;;;;;;;53.55;37.85;;;5.10;91.90;;;;;;5006187;28;20054;-51
2021/03/25 02:59:37;;;;;;;58.25;39.28;;;5.20;91.80;;;;;;5004795;28;20491;-51
2021/03/25 03:02:13;;;;;;;58.00;38.83;;;5.20;92.10;;;;;;5007091;28;20084;-53
2021/03/25 03:04:52;;;;;;;50.47;34.53;;;5.20;91.90;;;;;;5006914;28;20053;-53
2021/03/25 03:07:26;;;;;;;51.97;37.38;;;5.20;91.60;;;;;;5009010;28;20046;-52
2021/03/25 03:09:58;;;;;;;53.15;37.45;;;5.30;91.60;;;;;;5006162;28;20476;-50
2021/03/25 03:12:30;;;;;;;56.63;39.88;;;5.40;91.50;;;;;;5006528;28;20461;-51
2021/03/25 03:15:13;;;;;;;60.40;37.22;;;5.40;91.70;;;;;;4989628;28;20057;-55
2021/03/25 03:17:48;;;;;;;51.67;36.08;;;5.40;91.90;;;;;;5003948;28;20127;-53
2021/03/25 03:20:32;;;;;;;54.50;36.67;;;5.40;91.70;;;;;;5006077;28;21387;-51
2021/03/25 03:23:03;;;;;;;57.78;39.97;;;5.30;91.60;;;;;;5007433;28;20140;-53
2021/03/25 03:25:35;;;;;;;56.80;37.33;;;5.30;91.60;;;;;;5007296;28;20058;-53
2021/03/25 03:28:09;;;;;;;56.25;37.03;;;5.20;91.70;;;;;;5005913;28;20053;-53
2021/03/25 03:30:39;;;;;;;53.65;38.10;;;5.20;91.80;;;;;;5006457;28;20084;-51
2021/03/25 03:33:15;;;;;;;49.17;33.72;;;5.20;91.50;;;;;;5003575;28;20053;-50
2021/03/25 03:35:55;;;;;;;54.05;35.45;;;5.10;91.30;;;;;;5006095;28;20160;-50
2021/03/25 03:38:51;;;;;;;64.90;39.03;;;5.00;91.30;;;;;;5007813;28;20093;-51
2021/03/25 03:41:32;;;;;;;55.42;37.30;;;5.00;91.50;;;;;;5005092;28;20050;-53
2021/03/25 03:44:05;;;;;;;58.88;35.72;;;5.00;91.90;;;;;;5003984;28;20042;-50
2021/03/25 03:46:33;;;;;;;59.58;38.85;;;5.00;91.70;;;;;;4988272;28;20121;-50
2021/03/25 03:49:16;;;;;;;52.65;36.58;;;5.00;91.50;;;;;;5002937;28;20148;-52
2021/03/25 03:51:52;;;;;;;55.42;38.63;;;5.00;91.70;;;;;;5003307;28;20414;-52
2021/03/25 03:54:19;;;;;;;54.58;37.50;;;5.00;91.80;;;;;;5008925;28;20046;-54
2021/03/25 03:57:12;;;;;;;55.92;36.10;;;5.00;91.70;;;;;;5005771;28;20077;-52
2021/03/25 03:59:43;;;;;;;54.25;38.70;;;5.10;91.90;;;;;;5005329;28;20054;-53
2021/03/25 04:02:35;;;;;;;53.70;37.13;;;5.10;92.00;;;;;;5010913;28;20042;-52
2021/03/25 04:05:21;;;;;;;58.67;39.25;;;5.20;91.80;;;;;;5005868;28;20512;-54
2021/03/25 04:07:53;;;;;;;51.30;35.88;;;5.20;91.80;;;;;;5005715;28;20053;-52
2021/03/25 04:10:35;;;;;;;57.45;39.15;;;5.20;91.80;;;;;;5005394;28;20049;-51
2021/03/25 04:13:02;;;;;;;;;;;5.30;91.80;;;;;;5005972;28;20573;-51
2021/03/25 04:15:38;;;;;;;55.20;39.05;;;5.30;91.90;;;;;;5005486;28;19936;-50
2021/03/25 04:18:06;;;;;;;57.75;38.63;;;5.40;91.80;;;;;;5003605;28;20050;-52
2021/03/25 04:20:39;;;;;;;61.88;41.10;;;5.40;91.70;;;;;;5006525;28;20093;-53
2021/03/25 04:23:13;;;;;;;60.13;41.60;;;5.50;91.90;;;;;;4987817;28;20045;-51
2021/03/25 04:25:54;;;;;;;55.55;38.92;;;5.50;92.20;;;;;;5005930;28;20133;-52
2021/03/25 04:28:42;;;;;;;60.05;40.47;;;5.50;92.10;;;;;;5007838;28;20037;-51
2021/03/25 04:31:08;;;;;;;53.47;37.03;;;5.50;91.90;;;;;;5004232;28;20057;-51
2021/03/25 04:33:40;;;;;;;54.95;37.72;;;5.50;91.90;;;;;;5006079;28;20120;-50
2021/03/25 04:36:21;;;;;;;52.38;37.50;;;5.50;91.80;;;;;;5005318;28;20490;-52
2021/03/25 04:38:51;;;;;;;57.92;38.38;;;5.50;91.80;;;;;;5009567;28;20053;-54
2021/03/25 04:41:20;;;;;;;58.45;38.40;;;5.50;91.80;;;;;;5009710;28;20080;-51
2021/03/25 04:43:47;;;;;;;53.95;39.03;;;5.50;91.80;;;;;;5009465;28;20054;-51
2021/03/25 04:46:44;;;;;;;57.45;40.22;;;5.50;91.70;;;;;;5009678;28;20566;-53
2021/03/25 04:49:21;;;;;;;63.05;40.15;;;5.50;92.30;;;;;;5013311;28;20498;-53
2021/03/25 04:52:00;;;;;;;56.30;39.33;;;5.50;92.20;;;;;;5007758;28;20057;-50
2021/03/25 04:54:36;;;;;;;58.30;41.20;;;5.50;92.30;;;;;;5009339;28;20050;-52
2021/03/25 04:57:17;;;;;;;69.05;45.30;;;5.50;92.30;;;;;;5005547;28;20092;-51
2021/03/25 04:59:46;;;;;;;59.55;41.22;;;5.50;92.50;;;;;;5010017;28;20794;-52
2021/03/25 05:02:17;;;;;;;63.30;44.83;;;5.40;92.40;;;;;;5009318;28;20096;-52
2021/03/25 05:04:51;;;;;;;68.57;45.25;;;5.40;92.40;;;;;;5007948;28;20470;-54
2021/03/25 05:07:21;;;;;;;72.22;45.78;;;5.50;92.50;;;;;;5008877;28;20042;-51
2021/03/25 05:09:51;;;;;;;68.03;43.72;;;5.50;92.20;;;;;;5005979;28;20054;-49
2021/03/25 05:12:20;;;;;;;75.50;47.15;;;5.60;92.60;;;;;;5008463;28;20046;-48
2021/03/25 05:15:07;;;;;;;70.43;45.55;;;5.60;92.60;;;;;;5005609;28;20050;-50
2021/03/25 05:17:52;;;;;;;67.22;46.63;;;5.70;92.30;;;;;;4992725;28;20061;-47
2021/03/25 05:20:30;;;;;;;73.80;46.42;;;5.80;92.20;;;;;;5006492;28;20072;-47
2021/03/25 05:23:20;;;;;;;67.20;44.97;;;5.70;92.20;;;;;;5007206;28;20058;-47
2021/03/25 05:26:03;;;;;;;67.97;47.05;;;5.70;92.00;;;;;;5007753;28;20042;-47
2021/03/25 05:28:43;;;;;;;69.88;45.28;;;5.60;92.00;;;;;;4988669;28;20057;-51
2021/03/25 05:31:13;;;;;;;63.63;44.08;;;5.50;91.90;;;;;;4990630;28;20061;-49
2021/03/25 05:33:56;;;;;;;65.78;44.40;;;5.50;91.90;;;;;;5011571;28;20048;-48
2021/03/25 05:36:28;;;;;;;72.00;44.83;;;5.40;92.30;;;;;;5008003;28;20049;-48
2021/03/25 05:38:58;;;;;;;68.82;44.25;;;5.40;92.10;;;;;;5008134;28;20046;-48
2021/03/25 05:41:41;;;;;;;69.15;45.08;;;5.30;92.00;;;;;;5005031;28;20057;-48
2021/03/25 05:44:32;;;;;;;76.88;46.15;;;5.20;92.20;;;;;;4991833;28;20041;-50
2021/03/25 05:47:34;;;;;;;78.50;48.22;;;5.20;92.30;;;;;;5007178;28;20141;-51
2021/03/25 05:50:06;;;;;;;67.88;46.17;;;5.20;92.50;;;;;;5005558;28;20050;-47
2021/03/25 05:52:51;;;;;;;68.00;43.78;;;5.10;92.60;;;;;;5004877;28;20044;-48
2021/03/25 05:55:39;;;;;;;74.30;45.38;;;5.10;92.40;;;;;;5007355;28;20050;-48
2021/03/25 05:58:35;;;;;;;73.05;44.97;;;5.30;92.00;;;;;;5007867;28;20045;-48
2021/03/25 06:01:15;;;;;;;74.53;47.70;;;5.20;92.20;;;;;;5009176;28;20107;-51
2021/03/25 06:04:01;;;;;;;73.05;48.53;;;5.20;92.10;;;;;;5012537;28;20125;-52
2021/03/25 06:06:46;;;;;;;72.03;47.00;;;5.20;92.10;;;;;;5007072;28;20038;-50
2021/03/25 06:09:20;;;;;;;71.63;48.60;;;5.30;92.20;;;;;;5007396;28;20129;-48
2021/03/25 06:12:00;;;;;;;76.03;49.05;;;5.30;92.30;;;;;;5007848;28;20046;-48
2021/03/25 06:15:01;;;;;;;73.03;46.67;;;5.50;92.10;;;;;;4989190;28;20056;-49
2021/03/25 06:17:56;;;;;;;74.35;46.17;;;5.50;92.10;;;;;;5002891;28;20090;-48
2021/03/25 06:20:51;;;;;;;76.28;47.03;;;5.60;92.00;;;;;;5006244;28;20038;-49
2021/03/25 06:23:51;;;;;;;75.85;48.13;;;5.60;92.10;;;;;;5005910;28;20136;-49
2021/03/25 06:26:30;;;;;;;72.75;47.28;;;5.60;92.00;;;;;;5004823;28;20054;-50
2021/03/25 06:29:40;;;;;;;70.55;46.90;;;5.70;92.10;;;;;;5001641;28;20046;-52
2021/03/25 06:32:20;;;;;;;70.25;46.38;;;5.80;92.10;;;;;;4908610;29;20529;-52
2021/03/25 06:34:53;;;;;;;76.35;50.88;;;5.90;92.00;;;;;;4907671;29;20432;-54
2021/03/25 06:37:22;;;;;;;88.53;60.22;;;6.00;91.90;;;;;;4906740;29;20134;-51
2021/03/25 06:40:03;;;;;;;77.55;48.97;;;6.10;91.80;;;;;;4905770;29;20065;-53
2021/03/25 06:42:56;;;;;;;67.03;46.15;;;6.30;91.80;;;;;;4907035;29;20218;-56
2021/03/25 06:45:37;;;;;;;70.00;46.10;;;6.40;91.60;;;;;;4906669;29;20056;-55
2021/03/25 06:48:16;;;;;;;71.68;47.55;;;6.50;91.40;;;;;;4906643;29;20496;-56
2021/03/25 06:50:50;;;;;;;74.60;47.95;;;6.60;91.10;;;;;;4903934;29;20060;-52
2021/03/25 06:53:33;;;;;;;88.82;62.45;;;6.70;91.20;;;;;;4903070;29;20714;-54
2021/03/25 06:56:09;;;;;;;109.10;77.50;;;6.80;91.20;;;;;;4905252;29;20100;-52
2021/03/25 06:58:53;;;;;;;69.63;47.47;;;7.00;91.10;;;;;;4903957;29;20052;-55
2021/03/25 07:01:32;;;;;;;75.47;50.65;;;7.30;90.80;;;;;;4903720;29;20044;-53
2021/03/25 07:04:08;;;;;;;66.18;45.55;;;7.40;90.60;;;;;;4906394;29;20064;-55
2021/03/25 07:06:40;;;;;;;69.82;44.85;;;7.60;90.50;;;;;;4905004;29;20063;-56
2021/03/25 07:09:13;;;;;;;70.15;45.45;;;7.80;90.50;;;;;;4977154;28;20062;-55
2021/03/25 07:11:42;;;;;;;65.93;46.33;;;8.00;90.00;;;;;;4981401;28;20054;-57
2021/03/25 07:14:21;;;;;;;66.85;47.55;;;8.10;88.60;;;;;;4984477;28;20149;-50
2021/03/25 07:16:48;;;;;;;67.35;49.05;;;8.20;87.30;;;;;;4985998;28;20171;-55
2021/03/25 07:19:21;;;;;;;72.25;55.53;;;8.30;88.10;;;;;;4986428;28;20056;-55
2021/03/25 07:21:51;;;;;;;68.90;46.08;;;8.30;87.70;;;;;;4983792;28;20061;-56
2021/03/25 07:24:23;;;;;;;71.25;53.47;;;8.40;88.00;;;;;;4990059;28;20486;-56
2021/03/25 07:27:01;;;;;;;;;;;8.30;87.70;;;;;;4992717;28;20148;-56
2021/03/25 07:29:36;;;;;;;71.03;52.03;;;8.30;86.80;;;;;;4991281;28;19926;-55
2021/03/25 07:32:08;;;;;;;69.88;51.13;;;8.30;88.10;;;;;;4987163;28;20050;-56
2021/03/25 07:34:45;;;;;;;69.45;49.58;;;8.20;88.10;;;;;;4983059;28;20144;-51
2021/03/25 07:37:36;;;;;;;70.68;47.63;;;8.20;88.20;;;;;;4986781;28;20050;-49
2021/03/25 07:40:31;;;;;;;72.00;50.40;;;8.20;88.20;;;;;;4985884;28;20058;-56
2021/03/25 07:43:17;;;;;;;76.32;49.72;;;8.30;88.60;;;;;;4982069;28;20328;-55
2021/03/25 07:45:45;;;;;;;83.38;63.05;;;8.30;88.40;;;;;;4984058;28;20514;-53
2021/03/25 07:48:20;;;;;;;81.97;52.70;;;8.40;88.10;;;;;;4984449;28;20054;-53
2021/03/25 07:50:52;;;;;;;79.03;54.47;;;8.50;87.80;;;;;;4984475;28;20124;-54
2021/03/25 07:53:29;;;;;;;74.28;49.50;;;8.60;87.60;;;;;;5005465;28;20054;-54
2021/03/25 07:56:07;;;;;;;77.65;52.53;;;8.70;87.20;;;;;;5003551;28;20152;-55
2021/03/25 07:58:39;;;;;;;70.80;49.85;;;8.80;87.20;;;;;;5002489;28;20160;-54
2021/03/25 08:01:16;;;;;;;76.75;53.05;;;8.80;86.70;;;;;;5003384;28;20065;-55
2021/03/25 08:03:56;;;;;;;70.38;49.95;;;8.90;86.50;;;;;;5003815;28;20100;-55
2021/03/25 08:06:35;;;;;;;77.20;52.67;;;8.90;86.50;;;;;;5005804;28;20049;-54
2021/03/25 08:09:08;;;;;;;73.45;48.15;;;8.90;86.30;;;;;;5006207;28;20046;-56
2021/03/25 08:11:58;;;;;;;75.55;53.17;;;9.00;86.80;;;;;;5000163;28;20054;-55
2021/03/25 08:14:32;;;;;;;71.30;50.50;;;8.90;86.60;;;;;;5003361;28;20174;-52
2021/03/25 08:17:28;;;;;;;113.43;83.85;;;8.90;86.30;;;;;;5003056;28;20062;-56
2021/03/25 08:20:08;;;;;;;74.20;53.45;;;9.00;86.50;;;;;;5005162;28;20062;-55
2021/03/25 08:22:55;;;;;;;80.97;57.88;;;9.00;86.80;;;;;;5001927;28;20433;-56
2021/03/25 08:25:33;;;;;;;95.03;69.35;;;9.10;86.70;;;;;;5006530;28;20053;-55
2021/03/25 08:28:25;;;;;;;83.28;60.60;;;9.10;86.50;;;;;;5006389;28;20065;-55
2021/03/25 08:31:14;;;;;;;98.10;69.43;;;9.20;86.20;;;;;;5012234;28;20123;-55
2021/03/25 08:34:02;;;;;;;72.43;50.85;;;9.30;86.20;;;;;;5006228;28;20123;-54
2021/03/25 08:36:52;;;;;;;68.97;50.13;;;9.40;85.80;;;;;;5013619;28;20172;-54
2021/03/25 08:39:34;;;;;;;80.22;58.22;;;9.50;85.20;;;;;;5006728;28;20570;-56
2021/03/25 08:42:38;;;;;;;68.40;50.00;;;9.70;85.00;;;;;;5005484;28;20046;-57
2021/03/25 08:45:18;;;;;;;66.65;51.00;;;9.80;84.70;;;;;;5004049;28;20046;-56
2021/03/25 08:48:05;;;;;;;71.20;50.33;;;9.90;83.90;;;;;;5005461;28;20054;-56
2021/03/25 08:50:46;;;;;;;69.40;51.88;;;10.10;84.10;;;;;;5004461;28;20042;-55
2021/03/25 08:53:29;;;;;;;70.30;49.38;;;10.20;83.20;;;;;;5001707;28;20041;-55
2021/03/25 08:56:07;;;;;;;70.13;51.35;;;10.40;82.20;;;;;;5005287;28;20105;-56
2021/03/25 08:58:37;;;;;;;90.13;63.15;;;10.60;82.60;;;;;;5006234;28;20128;-55
2021/03/25 09:01:24;;;;;;;70.15;51.60;;;10.70;79.70;;;;;;5003474;28;20136;-56
2021/03/25 09:03:59;;;;;;;70.47;54.50;;;10.90;79.80;;;;;;5004264;28;20058;-52
2021/03/25 09:06:43;;;;;;;71.55;52.28;;;10.90;79.70;;;;;;5005596;28;20576;-55
2021/03/25 09:09:43;;;;;;;74.38;55.95;;;11.00;79.40;;;;;;5007044;28;20061;-51
2021/03/25 09:12:14;;;;;;;100.35;80.57;;;11.20;79.60;;;;;;5003662;28;20103;-58
2021/03/25 09:14:50;;;;;;;67.82;51.38;;;11.30;79.30;;;;;;5004719;28;20050;-58
2021/03/25 09:17:20;;;;;;;66.55;49.22;;;11.40;78.20;;;;;;5005119;28;20714;-58
2021/03/25 09:19:54;;;;;;;61.58;45.95;;;11.50;78.40;;;;;;5004299;28;20092;-58
2021/03/25 09:22:57;;;;;;;65.25;46.63;;;11.50;77.20;;;;;;5005761;28;20041;-58
2021/03/25 09:25:25;;;;;;;64.25;46.13;;;11.50;75.80;;;;;;5007061;28;20042;-59
2021/03/25 09:27:56;;;;;;;62.75;47.28;;;11.60;77.40;;;;;;5006485;28;20053;-54
2021/03/25 09:30:40;;;;;;;58.47;45.38;;;11.60;77.30;;;;;;5006135;28;20046;-57
2021/03/25 09:33:43;;;;;;;64.38;46.20;;;11.50;75.90;;;;;;5006085;28;20527;-57
2021/03/25 09:36:18;;;;;;;66.78;51.28;;;11.40;75.30;;;;;;5007665;28;20049;-57
2021/03/25 09:39:01;;;;;;;63.03;48.85;;;11.20;75.60;;;;;;5007625;28;20049;-55
2021/03/25 09:41:33;;;;;;;65.70;47.58;;;12.10;74.80;;;;;;5003759;28;20057;-54
2021/03/25 09:44:05;;;;;;;66.82;46.97;;;13.20;69.70;;;;;;5008297;28;20104;-56
2021/03/25 09:46:36;;;;;;;61.67;48.05;;;14.30;69.30;;;;;;5015568;28;20169;-56
2021/03/25 09:49:43;;;;;;;61.13;45.67;;;15.00;68.60;;;;;;5007638;28;20687;-56
2021/03/25 09:52:20;;;;;;;61.40;47.63;;;15.60;63.70;;;;;;5003976;28;20800;-57
2021/03/25 09:55:13;;;;;;;59.45;46.40;;;16.40;62.50;;;;;;5008410;28;20046;-56
2021/03/25 09:57:42;;;;;;;58.03;44.90;;;15.80;57.10;;;;;;5006671;28;20054;-56
2021/03/25 10:00:11;;;;;;;50.10;40.13;;;16.00;58.90;;;;;;5012182;28;20049;-53
2021/03/25 10:02:40;;;;;;;51.45;41.75;;;16.30;60.50;;;;;;5011550;28;20046;-54
2021/03/25 10:05:28;;;;;;;52.67;39.72;;;16.90;60.20;;;;;;5007329;28;20058;-55
2021/03/25 10:07:58;;;;;;;52.65;41.15;;;17.40;54.30;;;;;;5012585;28;20788;-53
2021/03/25 10:10:35;;;;;;;50.47;41.28;;;17.60;57.30;;;;;;5007874;28;20171;-51
2021/03/25 10:13:01;;;;;;;51.80;41.42;;;17.90;56.00;;;;;;5001628;28;20107;-54
2021/03/25 10:15:45;;;;;;;50.70;41.47;;;18.20;56.20;;;;;;5012841;28;20046;-54
2021/03/25 10:18:14;;;;;;;50.03;42.13;;;17.60;52.00;;;;;;5013082;28;20144;-50
2021/03/25 10:21:07;;;;;;;54.25;45.50;;;17.30;52.60;;;;;;5014781;28;20045;-58
2021/03/25 10:23:35;;;;;;;54.00;44.15;;;17.40;52.80;;;;;;5002889;28;20073;-49
2021/03/25 10:26:04;;;;;;;49.92;42.88;;;17.40;52.80;;;;;;5007134;28;20080;-46
2021/03/25 10:28:49;;;;;;;50.08;40.85;;;17.30;52.10;;;;;;5007585;28;20883;-49
2021/03/25 10:31:22;;;;;;;50.80;42.17;;;18.30;52.50;;;;;;5006345;28;20108;-52
2021/03/25 10:33:58;;;;;;;52.85;43.85;;;18.40;51.40;;;;;;4993046;28;20081;-50
2021/03/25 10:36:39;;;;;;;53.00;44.22;;;18.30;53.90;;;;;;5007567;28;20066;-48
2021/03/25 10:39:17;;;;;;;50.92;41.17;;;17.80;50.90;;;;;;5007915;28;20693;-48
2021/03/25 10:41:43;;;;;;;50.00;41.38;;;17.40;53.00;;;;;;5008036;28;20053;-51
2021/03/25 10:44:25;;;;;;;50.70;40.67;;;16.80;53.70;;;;;;5007228;28;20574;-47
2021/03/25 10:46:58;;;;;;;;;;;16.60;52.60;;;;;;5007827;28;20066;-49
2021/03/25 10:49:30;;;;;;;47.00;39.45;;;16.40;53.90;;;;;;5007742;28;19932;-48
2021/03/25 10:52:03;;;;;;;47.90;37.08;;;16.40;55.70;;;;;;5006400;28;20058;-51
2021/03/25 10:54:40;;;;;;;55.63;39.17;;;16.30;55.60;;;;;;4988542;28;20058;-48
2021/03/25 10:57:29;;;;;;;45.03;36.10;;;16.60;54.30;;;;;;5006837;28;20107;-60
2021/03/25 11:00:15;;;;;;;46.40;38.80;;;16.90;53.50;;;;;;5006402;28;20062;-59
2021/03/25 11:02:44;;;;;;;41.00;33.33;;;16.90;52.50;;;;;;5003396;28;20054;-58
2021/03/25 11:05:28;;;;;;;38.45;32.47;;;17.00;50.80;;;;;;5003238;28;20046;-58
2021/03/25 11:08:03;;;;;;;45.53;33.15;;;17.00;50.00;;;;;;5005283;28;20058;-60
2021/03/25 11:10:36;;;;;;;38.42;31.45;;;17.10;51.90;;;;;;5005492;28;20069;-56
2021/03/25 11:13:07;;;;;;;35.80;27.63;;;16.90;50.00;;;;;;5007054;28;20095;-59
2021/03/25 11:15:46;;;;;;;39.88;29.88;;;16.10;50.30;;;;;;5006383;28;20150;-60
2021/03/25 11:18:22;;;;;;;39.15;31.23;;;16.10;53.00;;;;;;4989115;28;20054;-60
2021/03/25 11:20:52;;;;;;;44.38;33.90;;;16.10;53.00;;;;;;5005290;28;20418;-59
2021/03/25 11:23:30;;;;;;;39.88;32.80;;;16.10;54.20;;;;;;5005462;28;20160;-59
2021/03/25 11:26:04;;;;;;;41.10;33.47;;;15.70;52.70;;;;;;5010021;28;20490;-59
2021/03/25 11:28:41;;;;;;;39.88;31.63;;;15.60;53.80;;;;;;5005982;28;20049;-59
2021/03/25 11:31:24;;;;;;;40.72;29.85;;;15.50;54.70;;;;;;5005483;28;20061;-58
2021/03/25 11:33:57;;;;;;;39.08;30.48;;;15.70;53.40;;;;;;5012463;28;20046;-59
2021/03/25 11:36:38;;;;;;;41.35;32.50;;;15.90;53.00;;;;;;5005195;28;20157;-60
2021/03/25 11:39:36;;;;;;;37.65;29.85;;;15.90;54.00;;;;;;5005265;28;20569;-61
2021/03/25 11:42:26;;;;;;;31.88;27.00;;;16.00;53.50;;;;;;5005388;28;20053;-54
2021/03/25 11:44:55;;;;;;;38.55;29.98;;;16.00;53.40;;;;;;4986516;28;20065;-58
2021/03/25 11:47:32;;;;;;;40.47;29.75;;;15.90;54.30;;;;;;5002095;28;20053;-58
2021/03/25 11:50:07;;;;;;;37.10;31.05;;;16.10;54.50;;;;;;5007578;28;20857;-58
2021/03/25 11:52:46;;;;;;;49.38;41.08;;;16.50;54.60;;;;;;5006480;28;20775;-57
2021/03/25 11:55:19;;;;;;;39.88;32.38;;;17.10;53.40;;;;;;4987533;28;20076;-53
2021/03/25 11:57:45;;;;;;;38.88;30.20;;;16.70;53.50;;;;;;5006738;28;20423;-55
2021/03/25 12:00:18;;;;;;;38.80;31.40;;;16.40;53.90;;;;;;5006794;28;20049;-53
2021/03/25 12:02:45;;;;;;;43.45;33.13;;;16.30;54.10;;;;;;5005259;28;20080;-58
2021/03/25 12:05:24;;;;;;;39.78;32.95;;;16.00;55.60;;;;;;5005587;28;20049;-54
2021/03/25 12:08:12;;;;;;;39.13;31.30;;;15.80;55.80;;;;;;5012154;28;20073;-52
2021/03/25 12:10:38;;;;;;;41.15;32.00;;;15.90;57.40;;;;;;5004001;28;20395;-51
2021/03/25 12:13:07;;;;;;;40.78;31.42;;;15.70;56.70;;;;;;5006574;28;20057;-54
2021/03/25 12:15:38;;;;;;;37.70;30.38;;;15.80;57.10;;;;;;5005913;28;20060;-53
2021/03/25 12:18:32;;;;;;;38.47;29.63;;;15.70;57.50;;;;;;5006442;28;20821;-54
2021/03/25 12:21:10;;;;;;;36.60;29.95;;;15.50;57.70;;;;;;5006326;28;20049;-52
2021/03/25 12:23:43;;;;;;;38.05;30.90;;;15.50;58.60;;;;;;5009863;28;20038;-52
2021/03/25 12:26:14;;;;;;;39.92;32.25;;;15.60;58.90;;;;;;5003112;28;20136;-51
2021/03/25 12:28:43;;;;;;;37.90;29.23;;;15.70;59.00;;;;;;4994426;28;20065;-51
2021/03/25 12:31:15;;;;;;;41.00;31.20;;;15.50;57.90;;;;;;5005707;28;20054;-52
2021/03/25 12:33:44;;;;;;;39.90;31.45;;;15.60;59.80;;;;;;5003992;28;20495;-47
2021/03/25 12:36:13;;;;;;;39.40;33.78;;;15.40;59.10;;;;;;5005698;28;20101;-54
2021/03/25 12:38:42;;;;;;;43.42;34.78;;;15.40;60.60;;;;;;5004711;28;20148;-49
2021/03/25 12:41:16;;;;;;;43.95;34.67;;;15.20;60.10;;;;;;5006302;28;20042;-49
2021/03/25 12:43:44;;;;;;;46.40;34.35;;;15.10;60.30;;;;;;5005227;28;20430;-54
2021/03/25 12:46:13;;;;;;;44.95;35.70;;;15.00;60.50;;;;;;5006061;28;20085;-51
2021/03/25 12:48:44;;;;;;;43.03;35.00;;;14.90;60.90;;;;;;5003250;28;20053;-49
2021/03/25 12:51:14;;;;;;;48.42;37.58;;;14.90;60.70;;;;;;5006336;28;20835;-54
2021/03/25 12:53:44;;;;;;;48.53;38.05;;;14.80;61.50;;;;;;5002312;28;20049;-52
2021/03/25 12:56:27;;;;;;;48.95;38.85;;;14.80;64.10;;;;;;5004622;28;20501;-53
2021/03/25 12:58:55;;;;;;;50.35;40.33;;;15.40;66.90;;;;;;5009079;28;20117;-57
2021/03/25 13:01:27;;;;;;;51.65;40.28;;;15.80;65.70;;;;;;5010605;28;20050;-57
2021/03/25 13:03:54;;;;;;;51.60;40.28;;;15.70;65.00;;;;;;5008966;28;20056;-57
2021/03/25 13:06:25;;;;;;;46.58;39.75;;;15.40;65.20;;;;;;5008723;28;20088;-57
2021/03/25 13:08:54;;;;;;;51.05;41.85;;;15.00;65.20;;;;;;5008026;28;20050;-56
2021/03/25 13:11:27;;;;;;;52.28;41.58;;;14.80;66.50;;;;;;5016710;28;20050;-56
2021/03/25 13:13:54;;;;;;;52.35;44.47;;;14.70;68.00;;;;;;5007276;28;20046;-57
2021/03/25 13:16:20;;;;;;;60.00;48.58;;;14.60;66.70;;;;;;5008637;28;20061;-57
2021/03/25 13:18:47;;;;;;;53.35;45.72;;;14.60;66.70;;;;;;5008768;28;20050;-57
2021/03/25 13:21:16;;;;;;;50.10;39.55;;;14.50;67.20;;;;;;5008789;28;20111;-56
2021/03/25 13:23:42;;;;;;;51.40;43.10;;;14.40;68.30;;;;;;5007057;28;20108;-57